Time;durP1;ratioP1;P1;durP2;ratioP2;P2;SDS_P1;SDS_P2;PMS_P1;PMS_P2;Temp;Humidity;BMP_temperature;BMP_pressure;BME280_temperature;BME280_humidity;BME280_pressure;Samples;Min_cycle;Max_cycle;Signal;HPM_P1;HPM_P2
2020/12/13 00:01:54;;;;;;;40.80;24.70;;;6.80;99.90;;;;;;5036021;28;20203;-86
2020/12/13 00:04:20;;;;;;;46.60;26.67;;;6.80;99.90;;;;;;5035482;28;20213;-80
2020/12/13 00:06:48;;;;;;;49.73;29.60;;;6.80;99.90;;;;;;5035712;28;20233;-87
2020/12/13 00:09:14;;;;;;;51.87;29.23;;;6.80;99.90;;;;;;5035721;28;20201;-78
2020/12/13 00:11:40;;;;;;;44.53;27.20;;;6.80;99.90;;;;;;5034866;28;20205;-86
2020/12/13 00:14:06;;;;;;;50.83;30.40;;;6.80;99.90;;;;;;5034515;28;20210;-83
2020/12/13 00:16:32;;;;;;;53.27;31.33;;;6.80;99.90;;;;;;5034538;28;20243;-85
2020/12/13 00:18:59;;;;;;;49.97;29.00;;;6.80;99.90;;;;;;5035124;28;20593;-85
2020/12/13 00:21:26;;;;;;;45.63;27.73;;;6.80;99.90;;;;;;5022227;28;20888;-77
2020/12/13 00:23:54;;;;;;;46.37;27.33;;;6.80;99.90;;;;;;5015835;28;20554;-85
2020/12/13 00:26:21;;;;;;;44.57;25.37;;;6.80;99.90;;;;;;5014552;28;20653;-79
2020/12/13 00:28:48;;;;;;;39.07;23.53;;;6.80;99.90;;;;;;5014715;28;20583;-87
2020/12/13 00:31:15;;;;;;;38.70;24.90;;;6.80;99.90;;;;;;5014810;28;20211;-87
2020/12/13 00:33:42;;;;;;;38.80;24.33;;;6.80;99.90;;;;;;5015592;28;20211;-84
2020/12/13 00:36:08;;;;;;;38.73;23.50;;;6.80;99.90;;;;;;5013538;28;20208;-84
2020/12/13 00:38:35;;;;;;;36.13;23.50;;;6.80;99.90;;;;;;5012400;28;20211;-84
2020/12/13 00:41:02;;;;;;;39.73;23.60;;;6.70;99.90;;;;;;5009244;28;20196;-86
2020/12/13 00:43:28;;;;;;;34.40;23.43;;;6.70;99.90;;;;;;5006354;28;20219;-86
2020/12/13 00:45:54;;;;;;;47.20;27.37;;;6.70;99.90;;;;;;5014046;28;20226;-86
2020/12/13 00:48:21;;;;;;;40.23;25.63;;;6.70;99.90;;;;;;5013573;28;20207;-87
2020/12/13 00:50:47;;;;;;;53.90;28.37;;;6.70;99.90;;;;;;5013337;28;20192;-87
2020/12/13 00:53:13;;;;;;;60.00;34.20;;;6.70;99.90;;;;;;5013450;28;20215;-88
2020/12/13 00:55:39;;;;;;;47.73;26.40;;;6.70;99.90;;;;;;5013758;28;20202;-87
2020/12/13 00:58:06;;;;;;;52.37;31.50;;;6.70;99.90;;;;;;5013340;28;20263;-88
2020/12/13 01:00:33;;;;;;;68.20;34.10;;;6.70;99.90;;;;;;5013984;28;20188;-87
2020/12/13 01:03:00;;;;;;;54.40;31.57;;;6.70;99.90;;;;;;5013644;28;20258;-87
2020/12/13 01:05:27;;;;;;;50.30;28.97;;;6.60;99.90;;;;;;5012626;28;20591;-87
2020/12/13 01:07:53;;;;;;;47.57;28.93;;;6.60;99.90;;;;;;5013329;28;20199;-87
2020/12/13 01:10:19;;;;;;;42.70;27.27;;;6.60;99.90;;;;;;5013177;28;20238;-89
2020/12/13 01:12:46;;;;;;;49.93;27.80;;;6.60;99.90;;;;;;5014001;28;20196;-88
2020/12/13 01:15:13;;;;;;;50.10;28.70;;;6.60;99.90;;;;;;5013100;28;20206;-88
2020/12/13 01:17:43;;;;;;;60.37;33.60;;;6.70;99.90;;;;;;5013043;28;20608;-88
2020/12/13 01:20:09;;;;;;;48.40;29.33;;;6.70;99.90;;;;;;5013161;28;20227;-88
2020/12/13 01:22:36;;;;;;;47.93;28.60;;;6.70;99.90;;;;;;5013327;28;20211;-88
2020/12/13 01:25:02;;;;;;;44.83;28.70;;;6.70;99.90;;;;;;5012829;28;20206;-88
2020/12/13 01:27:29;;;;;;;45.83;26.80;;;6.60;99.90;;;;;;5013222;28;20742;-88
2020/12/13 01:29:55;;;;;;;40.57;26.80;;;6.60;99.90;;;;;;5012799;28;20215;-88
2020/12/13 01:32:22;;;;;;;45.23;27.70;;;6.60;99.90;;;;;;5011981;28;20211;-88
2020/12/13 01:34:48;;;;;;;47.47;29.40;;;6.60;99.90;;;;;;5012971;28;20207;-88
2020/12/13 01:37:14;;;;;;;46.83;30.30;;;6.50;99.90;;;;;;5012658;28;20210;-88
2020/12/13 01:39:41;;;;;;;48.20;31.77;;;6.50;99.90;;;;;;5012018;28;20210;-88
2020/12/13 01:42:07;;;;;;;40.37;26.67;;;6.40;99.90;;;;;;5012765;28;20604;-88
2020/12/13 01:44:34;;;;;;;46.00;29.80;;;6.40;99.90;;;;;;5012372;28;20206;-88
2020/12/13 01:47:03;;;;;;;44.43;27.63;;;6.30;99.90;;;;;;5012441;28;20230;-88
2020/12/13 01:49:33;;;;;;;42.07;27.53;;;6.30;99.90;;;;;;5012264;28;20207;-89
2020/12/13 01:54:56;;;;;;;39.13;27.00;;;6.20;99.90;;;;;;4986988;28;20210;-87
2020/12/13 01:57:23;;;;;;;37.10;26.00;;;6.10;99.90;;;;;;5012195;28;20250;-88
2020/12/13 01:59:52;;;;;;;43.20;27.87;;;6.10;99.90;;;;;;5012208;28;20231;-88
2020/12/13 02:02:23;;;;;;;39.90;27.33;;;6.00;99.90;;;;;;5012268;28;20208;-85
2020/12/13 02:04:53;;;;;;;41.33;27.53;;;6.00;99.90;;;;;;5011758;28;20486;-88
2020/12/13 02:07:20;;;;;;;42.20;28.23;;;5.90;99.90;;;;;;5011321;28;20301;-89
2020/12/13 02:09:46;;;;;;;42.13;27.07;;;5.90;99.90;;;;;;5012823;28;20592;-88
2020/12/13 02:12:13;;;;;;;41.23;26.17;;;5.80;99.90;;;;;;5012015;28;20207;-88
2020/12/13 02:14:39;;;;;;;40.80;26.17;;;5.80;99.90;;;;;;5010512;28;20209;-89
2020/12/13 02:17:06;;;;;;;36.40;26.23;;;5.70;99.90;;;;;;5011879;28;20221;-88
2020/12/13 02:19:32;;;;;;;45.50;29.43;;;5.70;99.90;;;;;;5012324;28;20249;-88
2020/12/13 02:22:01;;;;;;;67.07;36.90;;;5.70;99.90;;;;;;5028735;28;20206;-89
2020/12/13 02:24:29;;;;;;;45.93;29.47;;;5.60;99.90;;;;;;5031580;28;20202;-90
2020/12/13 02:26:55;;;;;;;47.27;29.03;;;5.60;99.90;;;;;;5031391;28;20641;-84
2020/12/13 02:29:21;;;;;;;44.33;28.97;;;5.60;99.90;;;;;;5031341;28;20211;-89
2020/12/13 02:31:48;;;;;;;46.73;29.73;;;5.60;99.90;;;;;;5031753;28;20206;-89
2020/12/13 02:34:14;;;;;;;44.30;28.77;;;5.60;99.90;;;;;;5031022;28;20202;-89
2020/12/13 02:36:40;;;;;;;52.83;32.63;;;5.50;99.90;;;;;;5031767;28;20199;-89
2020/12/13 02:39:08;;;;;;;49.13;29.07;;;5.50;99.90;;;;;;5030632;28;20234;-89
2020/12/13 02:41:35;;;;;;;43.57;27.17;;;5.50;99.90;;;;;;5031236;28;20199;-90
2020/12/13 02:44:02;;;;;;;43.30;28.60;;;5.50;99.90;;;;;;5031597;28;20213;-90
2020/12/13 02:46:29;;;;;;;46.50;29.00;;;5.40;99.90;;;;;;5031313;28;20231;-90
2020/12/13 02:48:55;;;;;;;44.50;27.47;;;5.40;99.90;;;;;;5031030;28;20210;-87
2020/12/13 02:51:21;;;;;;;42.17;26.50;;;5.40;99.90;;;;;;5030965;28;20205;-89
2020/12/13 02:53:48;;;;;;;35.17;24.57;;;5.30;99.90;;;;;;5031285;28;20197;-89
2020/12/13 02:56:14;;;;;;;32.87;22.80;;;5.30;99.90;;;;;;5030766;28;20195;-89
2020/12/13 02:58:41;;;;;;;37.13;23.83;;;5.20;99.90;;;;;;5031338;28;20241;-86
2020/12/13 03:01:08;;;;;;;37.97;23.93;;;5.20;99.90;;;;;;5030310;28;20191;-88
2020/12/13 03:03:34;;;;;;;35.77;22.07;;;5.20;99.90;;;;;;5030748;28;20210;-89
2020/12/13 03:06:00;;;;;;;34.17;22.80;;;5.20;99.90;;;;;;5030337;28;20233;-88
2020/12/13 03:08:27;;;;;;;39.37;24.90;;;5.20;99.90;;;;;;5030278;28;20202;-90
2020/12/13 03:10:53;;;;;;;38.77;24.47;;;5.20;99.90;;;;;;5030143;28;20206;-87
2020/12/13 03:13:19;;;;;;;38.70;24.70;;;5.10;99.90;;;;;;5030551;28;20214;-88
2020/12/13 03:15:46;;;;;;;36.50;24.07;;;5.20;99.90;;;;;;5030752;28;20203;-89
2020/12/13 03:18:13;;;;;;;44.40;26.07;;;5.10;99.90;;;;;;5030830;28;20212;-88
2020/12/13 03:20:39;;;;;;;56.97;28.40;;;5.20;99.90;;;;;;5023712;28;20218;-89
2020/12/13 03:23:05;;;;;;;48.83;28.57;;;5.20;99.90;;;;;;5010676;28;20210;-89
2020/12/13 03:25:31;;;;;;;50.20;29.40;;;5.20;99.90;;;;;;5010850;28;20474;-86
2020/12/13 03:27:57;;;;;;;47.93;27.63;;;5.30;99.90;;;;;;5005669;28;20218;-81
2020/12/13 03:30:24;;;;;;;41.03;25.23;;;5.40;99.90;;;;;;5003977;28;20207;-79
2020/12/13 03:32:51;;;;;;;39.67;25.10;;;5.40;99.90;;;;;;5005486;28;20211;-87
2020/12/13 03:35:17;;;;;;;41.17;24.13;;;5.40;99.90;;;;;;5007058;28;20210;-87
2020/12/13 03:37:43;;;;;;;43.67;26.13;;;5.50;99.90;;;;;;5007162;28;20225;-87
2020/12/13 03:40:11;;;;;;;42.10;23.67;;;5.50;99.90;;;;;;5005776;28;20214;-78
2020/12/13 03:42:41;;;;;;;40.60;23.77;;;5.50;99.90;;;;;;5006613;28;20389;-81
2020/12/13 03:45:08;;;;;;;41.63;26.13;;;5.60;99.90;;;;;;5008457;28;20196;-85
2020/12/13 03:47:34;;;;;;;36.33;23.13;;;5.60;99.90;;;;;;5008303;28;20222;-86
2020/12/13 03:50:01;;;;;;;34.93;21.83;;;5.60;99.90;;;;;;5007953;28;20226;-82
2020/12/13 03:52:27;;;;;;;45.07;24.33;;;5.60;99.90;;;;;;5007467;28;20206;-88
2020/12/13 03:54:53;;;;;;;44.70;24.50;;;5.60;99.90;;;;;;5007736;28;20915;-87
2020/12/13 03:57:20;;;;;;;35.70;21.67;;;5.70;99.90;;;;;;5005375;28;20246;-85
2020/12/13 03:59:46;;;;;;;33.67;20.87;;;5.70;99.90;;;;;;5006465;28;20737;-88
2020/12/13 04:02:12;;;;;;;34.57;20.60;;;5.70;99.90;;;;;;5008939;28;20211;-85
2020/12/13 04:04:38;;;;;;;30.20;19.37;;;5.70;99.90;;;;;;5010076;28;20196;-88
2020/12/13 04:07:05;;;;;;;32.90;20.53;;;5.80;99.90;;;;;;5009473;28;20234;-87
2020/12/13 04:09:32;;;;;;;37.33;20.50;;;5.80;99.90;;;;;;5010195;28;20199;-87
2020/12/13 04:11:58;;;;;;;31.40;19.47;;;5.80;99.90;;;;;;5010975;28;20210;-85
2020/12/13 04:14:24;;;;;;;35.77;21.03;;;5.80;99.90;;;;;;5013649;28;20591;-86
2020/12/13 04:16:50;;;;;;;33.50;20.60;;;5.80;99.90;;;;;;5014022;28;20196;-88
2020/12/13 04:19:17;;;;;;;37.97;20.90;;;5.80;99.90;;;;;;5013389;28;20230;-86
2020/12/13 04:21:43;;;;;;;37.50;22.30;;;5.90;99.90;;;;;;5028224;28;20211;-86
2020/12/13 04:24:10;;;;;;;40.20;23.37;;;5.90;99.90;;;;;;5033083;28;20205;-88
2020/12/13 04:26:37;;;;;;;34.40;21.20;;;5.90;99.90;;;;;;5032601;28;20681;-87
2020/12/13 04:29:03;;;;;;;34.77;21.90;;;6.00;99.90;;;;;;5032819;28;20233;-88
2020/12/13 04:31:29;;;;;;;33.57;21.40;;;6.00;99.90;;;;;;5033315;28;20203;-86
2020/12/13 04:33:55;;;;;;;33.70;19.73;;;6.00;99.90;;;;;;5032572;28;20214;-88
2020/12/13 04:36:22;;;;;;;32.77;19.97;;;6.00;99.90;;;;;;5033106;28;20195;-88
2020/12/13 04:38:49;;;;;;;28.60;19.03;;;6.00;99.90;;;;;;5032834;28;20356;-85
2020/12/13 04:41:16;;;;;;;32.50;19.77;;;6.00;99.90;;;;;;5032999;28;20225;-88
2020/12/13 04:43:42;;;;;;;31.93;19.90;;;6.00;99.90;;;;;;5033346;28;20210;-83
2020/12/13 04:46:09;;;;;;;30.90;20.03;;;6.10;99.90;;;;;;5032722;28;20230;-89
2020/12/13 04:48:37;;;;;;;26.53;18.97;;;6.10;99.90;;;;;;5033435;28;20206;-85
2020/12/13 04:51:04;;;;;;;26.37;17.93;;;6.10;99.90;;;;;;5033310;28;20214;-87
2020/12/13 04:53:30;;;;;;;29.97;18.07;;;6.10;99.90;;;;;;5033309;28;20202;-85
2020/12/13 04:55:58;;;;;;;27.43;18.37;;;6.10;99.90;;;;;;5032884;28;20202;-87
2020/12/13 04:58:26;;;;;;;32.37;20.73;;;6.10;99.90;;;;;;5032803;28;20680;-87
2020/12/13 05:00:55;;;;;;;29.57;19.50;;;6.10;99.90;;;;;;5033283;28;20507;-89
2020/12/13 05:03:22;;;;;;;26.87;18.00;;;6.10;99.90;;;;;;5031364;28;20233;-88
2020/12/13 05:05:49;;;;;;;28.27;18.73;;;6.10;99.90;;;;;;5032953;28;20207;-88
2020/12/13 05:08:15;;;;;;;29.73;19.30;;;6.10;99.90;;;;;;5032546;28;20206;-88
2020/12/13 05:10:41;;;;;;;26.37;17.80;;;6.10;99.90;;;;;;5032026;28;20198;-88
2020/12/13 05:13:09;;;;;;;31.67;19.33;;;6.10;99.90;;;;;;5032190;28;20191;-88
2020/12/13 05:15:37;;;;;;;30.20;19.17;;;6.10;99.90;;;;;;5032427;28;20201;-86
2020/12/13 05:18:04;;;;;;;30.73;19.07;;;6.20;99.90;;;;;;5032127;28;20205;-87
2020/12/13 05:20:31;;;;;;;28.57;18.37;;;6.20;99.90;;;;;;5030491;28;20642;-86
2020/12/13 05:22:59;;;;;;;30.67;19.07;;;6.30;99.90;;;;;;5025180;28;20209;-84
2020/12/13 05:25:30;;;;;;;34.23;19.53;;;6.30;99.90;;;;;;5030497;28;20586;-86
2020/12/13 05:27:59;;;;;;;30.27;19.60;;;6.30;99.90;;;;;;5032170;28;20309;-87
2020/12/13 05:30:29;;;;;;;37.33;21.53;;;6.40;99.90;;;;;;5032687;28;20206;-85
2020/12/13 05:33:00;;;;;;;33.33;21.10;;;6.40;99.90;;;;;;5032806;28;20551;-81
2020/12/13 05:35:27;;;;;;;38.67;21.70;;;6.40;99.90;;;;;;5031756;28;20194;-88
2020/12/13 05:37:55;;;;;;;36.17;20.87;;;6.40;99.90;;;;;;5031985;28;20362;-86
2020/12/13 05:40:22;;;;;;;36.53;22.30;;;6.40;99.90;;;;;;5032134;28;20206;-86
2020/12/13 05:42:58;;;;;;;33.80;20.67;;;6.40;99.90;;;;;;5032018;28;20257;-86
2020/12/13 05:45:42;;;;;;;28.13;18.90;;;6.40;99.90;;;;;;5031859;28;20573;-87
2020/12/13 05:48:26;;;;;;;32.83;21.23;;;6.50;99.90;;;;;;5032099;28;20215;-86
2020/12/13 05:51:08;;;;;;;29.37;19.33;;;6.50;99.90;;;;;;5031788;28;20887;-85
2020/12/13 05:53:34;;;;;;;35.03;20.20;;;6.50;99.90;;;;;;5031878;28;20203;-84
2020/12/13 05:56:01;;;;;;;30.93;19.57;;;6.50;99.90;;;;;;5031782;28;20297;-83
2020/12/13 05:58:27;;;;;;;30.50;19.17;;;6.60;99.90;;;;;;5031506;28;20237;-85
2020/12/13 06:00:54;;;;;;;31.37;19.10;;;6.60;99.90;;;;;;5032316;28;20992;-85
2020/12/13 06:03:32;;;;;;;32.53;19.77;;;6.60;99.90;;;;;;5031930;28;20207;-85
2020/12/13 06:06:05;;;;;;;41.13;23.13;;;6.60;99.90;;;;;;5031816;28;20222;-85
2020/12/13 06:09:01;;;;;;;31.83;19.30;;;6.70;99.90;;;;;;5031739;28;20186;-85
2020/12/13 06:11:35;;;;;;;34.20;19.70;;;6.70;99.90;;;;;;5031801;28;20187;-83
2020/12/13 06:14:09;;;;;;;37.97;21.33;;;6.70;99.90;;;;;;5031176;28;20206;-85
2020/12/13 06:16:35;;;;;;;33.60;20.67;;;6.80;99.90;;;;;;5031519;28;20197;-85
2020/12/13 06:19:04;;;;;;;37.27;22.53;;;6.80;99.90;;;;;;5031685;28;20218;-85
2020/12/13 06:21:31;;;;;;;35.30;20.63;;;6.80;99.90;;;;;;5018418;28;20211;-84
2020/12/13 06:23:58;;;;;;;37.60;21.37;;;6.80;99.90;;;;;;5012302;28;20199;-86
2020/12/13 06:26:25;;;;;;;34.10;19.87;;;6.80;99.90;;;;;;5011583;28;20219;-86
2020/12/13 06:28:51;;;;;;;35.90;21.23;;;6.90;99.90;;;;;;5011729;28;20745;-86
2020/12/13 06:31:18;;;;;;;35.90;20.03;;;6.90;99.90;;;;;;5011711;28;20215;-87
2020/12/13 06:33:44;;;;;;;41.80;21.17;;;6.90;99.90;;;;;;5011970;28;20203;-88
2020/12/13 06:36:12;;;;;;;37.93;20.83;;;6.90;99.90;;;;;;5011256;28;20231;-88
2020/12/13 06:38:40;;;;;;;39.17;22.80;;;6.90;99.90;;;;;;5011668;28;20624;-87
2020/12/13 06:41:11;;;;;;;40.93;21.07;;;7.00;99.90;;;;;;5011467;28;20210;-87
2020/12/13 06:43:49;;;;;;;36.10;20.63;;;7.00;99.90;;;;;;5010452;28;20262;-90
2020/12/13 06:46:16;;;;;;;35.30;20.10;;;7.00;99.90;;;;;;5011638;28;20219;-89
2020/12/13 06:48:44;;;;;;;32.03;19.33;;;7.10;99.90;;;;;;5011685;28;20210;-88
2020/12/13 06:51:17;;;;;;;35.57;19.50;;;7.10;99.90;;;;;;5011612;28;20212;-89
2020/12/13 06:53:43;;;;;;;31.80;18.53;;;7.10;99.90;;;;;;5011831;28;20187;-87
2020/12/13 06:56:11;;;;;;;32.83;17.70;;;7.10;99.90;;;;;;5011141;28;20203;-88
2020/12/13 06:58:44;;;;;;;33.20;19.00;;;7.10;99.90;;;;;;5011332;28;20546;-88
2020/12/13 07:01:18;;;;;;;31.80;18.10;;;7.00;99.90;;;;;;5011602;28;20199;-88
2020/12/13 07:03:44;;;;;;;30.10;17.27;;;6.90;99.90;;;;;;5010691;28;20207;-88
2020/12/13 07:06:18;;;;;;;26.67;16.10;;;6.90;99.90;;;;;;5011560;28;20203;-88
2020/12/13 07:08:49;;;;;;;30.57;17.77;;;6.90;99.90;;;;;;5011327;28;20206;-88
2020/12/13 07:11:16;;;;;;;34.10;18.20;;;6.90;99.90;;;;;;5010952;28;20202;-88
2020/12/13 07:13:44;;;;;;;40.10;20.53;;;6.80;99.90;;;;;;5011015;28;20211;-88
2020/12/13 07:16:15;;;;;;;36.37;19.97;;;6.80;99.90;;;;;;5009258;28;20290;-88
2020/12/13 07:18:46;;;;;;;34.80;19.67;;;6.80;99.90;;;;;;5010969;28;20968;-87
2020/12/13 07:21:15;;;;;;;33.73;20.20;;;6.80;99.90;;;;;;5010782;28;20684;-88
2020/12/13 07:23:43;;;;;;;35.47;19.87;;;6.70;99.90;;;;;;5010357;28;20238;-87
2020/12/13 07:26:10;;;;;;;33.70;18.20;;;6.70;99.90;;;;;;5010210;28;20230;-82
2020/12/13 07:28:37;;;;;;;29.63;16.83;;;6.70;99.90;;;;;;5010369;28;20599;-88
2020/12/13 07:31:04;;;;;;;34.27;18.47;;;6.70;99.90;;;;;;5010375;28;20206;-88
2020/12/13 07:33:30;;;;;;;29.20;16.60;;;6.70;99.90;;;;;;5009661;28;20206;-86
2020/12/13 07:35:57;;;;;;;27.87;16.50;;;6.70;99.90;;;;;;5009701;28;20211;-84
2020/12/13 07:38:25;;;;;;;26.90;16.73;;;6.70;99.90;;;;;;5009927;28;20253;-86
2020/12/13 07:40:51;;;;;;;31.73;17.20;;;6.70;99.90;;;;;;5009825;28;20211;-87
2020/12/13 07:43:18;;;;;;;33.00;19.70;;;6.70;99.90;;;;;;5010527;28;20207;-88
2020/12/13 08:06:42;;;;;;;28.00;15.87;;;6.80;99.90;;;;;;4932410;28;20272;-82
2020/12/13 08:09:12;;;;;;;31.73;17.10;;;6.80;99.90;;;;;;5012396;28;20200;-84
2020/12/13 08:11:40;;;;;;;26.47;16.17;;;6.80;99.90;;;;;;5012876;28;20207;-83
2020/12/13 08:14:08;;;;;;;34.43;18.33;;;6.90;99.90;;;;;;5012933;28;20223;-85
2020/12/13 08:16:34;;;;;;;27.37;16.67;;;6.90;99.90;;;;;;5012042;28;20210;-83
2020/12/13 08:19:06;;;;;;;33.13;18.30;;;7.00;99.90;;;;;;5011210;28;21065;-84
2020/12/13 08:21:40;;;;;;;32.03;17.80;;;7.00;99.90;;;;;;5026130;28;20202;-82
2020/12/13 08:24:13;;;;;;;30.13;15.53;;;7.10;99.90;;;;;;5030575;28;20213;-85
2020/12/13 08:26:42;;;;;;;27.97;15.33;;;7.10;99.90;;;;;;5031349;28;20219;-86
2020/12/13 08:29:09;;;;;;;26.83;14.67;;;7.20;99.90;;;;;;5031008;28;20194;-85
2020/12/13 08:31:36;;;;;;;24.67;13.40;;;7.20;99.90;;;;;;5027346;28;20202;-84
2020/12/13 08:34:04;;;;;;;23.73;13.23;;;7.20;99.90;;;;;;5026100;28;20257;-80
2020/12/13 08:36:31;;;;;;;24.57;12.07;;;7.20;99.90;;;;;;5027084;28;20213;-82
2020/12/13 08:39:10;;;;;;;23.23;11.67;;;7.30;99.90;;;;;;5028802;28;20571;-85
2020/12/13 08:41:44;;;;;;;22.10;10.87;;;7.30;99.90;;;;;;5030692;28;20205;-81
2020/12/13 08:44:25;;;;;;;20.03;9.57;;;7.40;99.90;;;;;;5031182;28;20595;-82
2020/12/13 08:46:53;;;;;;;18.43;9.40;;;7.50;99.90;;;;;;5030592;28;20221;-85
2020/12/13 08:49:25;;;;;;;16.57;9.37;;;7.60;99.90;;;;;;5029974;28;20234;-76
2020/12/13 08:51:51;;;;;;;18.13;9.37;;;7.60;99.90;;;;;;5030904;28;20867;-84
2020/12/13 08:54:18;;;;;;;22.07;11.07;;;7.60;99.90;;;;;;5030874;28;20696;-84
2020/12/13 08:56:45;;;;;;;24.90;12.53;;;7.70;99.90;;;;;;5031132;28;20968;-80
2020/12/13 08:59:19;;;;;;;29.47;13.40;;;7.70;99.90;;;;;;5029812;28;20301;-81
2020/12/13 09:01:53;;;;;;;21.83;11.93;;;7.70;99.90;;;;;;5031384;28;20209;-83
2020/12/13 09:04:21;;;;;;;16.40;10.97;;;7.70;99.90;;;;;;5031545;28;20311;-84
2020/12/13 09:06:55;;;;;;;15.50;9.83;;;7.70;99.90;;;;;;5031648;28;20440;-80
2020/12/13 09:09:27;;;;;;;15.47;8.97;;;7.70;99.90;;;;;;5031156;28;20202;-84
2020/12/13 09:11:54;;;;;;;16.00;8.37;;;7.80;99.90;;;;;;5032022;28;20194;-82
2020/12/13 09:14:31;;;;;;;21.90;7.70;;;7.80;99.90;;;;;;5031874;28;20217;-84
2020/12/13 09:16:59;;;;;;;20.60;7.17;;;7.90;99.90;;;;;;5031371;28;20206;-83
2020/12/13 09:19:25;;;;;;;19.93;8.40;;;8.00;99.90;;;;;;5031992;28;20536;-85
2020/12/13 09:21:56;;;;;;;13.43;7.17;;;8.10;99.90;;;;;;5031814;28;20191;-84
2020/12/13 09:24:27;;;;;;;14.93;7.43;;;8.10;99.90;;;;;;5031475;28;20457;-83
2020/12/13 09:27:00;;;;;;;13.27;7.70;;;8.10;99.90;;;;;;5031351;28;20314;-79
2020/12/13 09:29:27;;;;;;;13.50;7.57;;;8.20;99.90;;;;;;5030687;28;20294;-80
2020/12/13 09:31:53;;;;;;;15.90;8.03;;;8.10;99.90;;;;;;5030866;28;20214;-83
2020/12/13 09:34:21;;;;;;;17.90;6.67;;;8.20;99.90;;;;;;5030750;28;20218;-86
2020/12/13 09:36:47;;;;;;;16.40;7.03;;;8.20;99.90;;;;;;5031327;28;20214;-81
2020/12/13 09:39:13;;;;;;;14.70;7.07;;;8.20;99.90;;;;;;5031559;28;20203;-85
2020/12/13 09:41:40;;;;;;;18.30;8.33;;;8.20;99.90;;;;;;5031542;28;20229;-83
2020/12/13 09:44:07;;;;;;;20.20;9.07;;;8.20;99.90;;;;;;5031204;28;20290;-87
2020/12/13 09:46:33;;;;;;;15.37;8.10;;;8.10;99.90;;;;;;5032973;28;20203;-89
2020/12/13 09:48:59;;;;;;;15.03;9.30;;;8.20;99.90;;;;;;5031390;28;20206;-88
2020/12/13 09:51:25;;;;;;;20.80;11.07;;;8.20;99.90;;;;;;5028122;28;20218;-90
2020/12/13 09:53:52;;;;;;;22.40;10.60;;;8.20;99.90;;;;;;5027455;28;20642;-78
2020/12/13 09:56:19;;;;;;;17.80;10.30;;;8.30;99.90;;;;;;5032757;28;20207;-80
2020/12/13 09:58:46;;;;;;;18.97;10.07;;;8.30;99.90;;;;;;5030163;28;20230;-77
2020/12/13 10:01:14;;;;;;;16.57;9.87;;;8.40;99.90;;;;;;5026488;28;20203;-81
2020/12/13 10:03:43;;;;;;;19.70;9.80;;;8.40;99.90;;;;;;5028109;28;20539;-83
2020/12/13 10:09:12;;;;;;;18.87;9.00;;;8.40;99.90;;;;;;4970139;28;20219;-86
2020/12/13 10:11:40;;;;;;;19.93;10.20;;;8.40;99.90;;;;;;4969375;28;20205;-88
2020/12/13 10:14:10;;;;;;;20.60;10.50;;;8.40;99.90;;;;;;4996272;28;20238;-85
2020/12/13 10:16:37;;;;;;;22.03;10.73;;;8.40;99.90;;;;;;5026212;28;20257;-82
2020/12/13 10:19:04;;;;;;;25.37;11.13;;;8.40;99.90;;;;;;5026233;28;20272;-88
2020/12/13 10:21:32;;;;;;;23.10;11.17;;;8.50;99.90;;;;;;5030007;28;20209;-87
2020/12/13 10:23:59;;;;;;;16.43;9.47;;;8.40;99.90;;;;;;5030383;28;20206;-90
2020/12/13 10:26:26;;;;;;;21.07;10.73;;;8.40;99.90;;;;;;5030240;28;20214;-89
2020/12/13 10:28:54;;;;;;;18.77;9.00;;;8.40;99.90;;;;;;5029517;28;20195;-89
2020/12/13 10:31:26;;;;;;;21.57;10.27;;;8.40;99.90;;;;;;5030724;28;20439;-87
2020/12/13 10:33:53;;;;;;;20.17;8.80;;;8.40;99.90;;;;;;5030248;28;20633;-86
2020/12/13 10:36:19;;;;;;;24.63;9.43;;;8.40;99.90;;;;;;5030424;28;20761;-84
2020/12/13 10:38:48;;;;;;;16.03;8.90;;;8.40;99.90;;;;;;5029939;28;20198;-89
2020/12/13 10:41:15;;;;;;;21.60;8.33;;;8.40;99.90;;;;;;5030534;28;20202;-75
2020/12/13 10:43:41;;;;;;;19.87;8.17;;;8.40;99.90;;;;;;5030193;28;20207;-85
2020/12/13 10:46:08;;;;;;;15.23;7.63;;;8.40;99.90;;;;;;5026916;28;20206;-75
2020/12/13 10:48:35;;;;;;;14.83;7.03;;;8.40;99.90;;;;;;5026187;28;20237;-75
2020/12/13 10:51:01;;;;;;;17.57;7.23;;;8.40;99.90;;;;;;5025661;28;20203;-75
2020/12/13 10:53:28;;;;;;;16.13;7.23;;;8.50;99.90;;;;;;5025575;28;20203;-83
2020/12/13 10:55:55;;;;;;;13.97;6.47;;;8.40;99.90;;;;;;5025232;28;20206;-76
2020/12/13 10:58:21;;;;;;;17.80;7.30;;;8.40;99.90;;;;;;5024716;28;20206;-76
2020/12/13 11:00:48;;;;;;;20.87;8.43;;;8.40;99.90;;;;;;5024984;28;20243;-76
2020/12/13 11:03:15;;;;;;;13.10;7.17;;;8.40;99.90;;;;;;5026470;28;20593;-79
2020/12/13 11:05:42;;;;;;;14.70;6.67;;;8.50;99.90;;;;;;5018295;28;20215;-80
2020/12/13 11:08:09;;;;;;;15.50;6.43;;;8.50;99.90;;;;;;5004616;28;20233;-78
2020/12/13 11:10:35;;;;;;;12.90;6.37;;;8.50;99.90;;;;;;5002244;28;20199;-77
2020/12/13 11:13:01;;;;;;;14.97;6.63;;;8.40;99.90;;;;;;4986115;28;20211;-83
2020/12/13 11:15:27;;;;;;;14.17;6.53;;;8.50;99.90;;;;;;4989217;28;20499;-82
2020/12/13 11:17:54;;;;;;;18.30;7.90;;;8.40;99.90;;;;;;4988607;28;20196;-82
2020/12/13 11:20:20;;;;;;;12.83;7.03;;;8.40;99.90;;;;;;4992415;28;20226;-81
2020/12/13 11:22:47;;;;;;;16.03;7.43;;;8.40;99.90;;;;;;5024556;28;20211;-82
2020/12/13 11:25:13;;;;;;;12.80;6.70;;;8.40;99.90;;;;;;5028114;28;20202;-87
2020/12/13 11:27:40;;;;;;;12.47;7.37;;;8.40;99.90;;;;;;5027610;28;20226;-87
2020/12/13 11:30:09;;;;;;;16.87;8.40;;;8.50;99.90;;;;;;5027834;28;20264;-80
2020/12/13 11:32:35;;;;;;;11.07;6.93;;;8.40;99.90;;;;;;5028582;28;20853;-85
2020/12/13 11:35:01;;;;;;;14.03;7.23;;;8.50;99.90;;;;;;5028585;28;20199;-87
2020/12/13 11:37:27;;;;;;;13.07;6.93;;;8.40;99.90;;;;;;5027139;28;20202;-78
2020/12/13 11:39:56;;;;;;;13.07;7.77;;;8.40;99.90;;;;;;5025472;28;20210;-75
2020/12/13 11:42:23;;;;;;;16.77;7.97;;;8.40;99.90;;;;;;5024963;28;20252;-75
2020/12/13 11:44:50;;;;;;;12.53;6.67;;;8.40;99.90;;;;;;5025145;28;20194;-78
2020/12/13 11:47:16;;;;;;;15.73;8.00;;;8.40;99.90;;;;;;5025348;28;20226;-75
2020/12/13 11:49:42;;;;;;;15.17;7.13;;;8.40;99.90;;;;;;5025209;28;20198;-75
2020/12/13 11:52:09;;;;;;;16.27;7.40;;;8.40;99.90;;;;;;5026448;28;20887;-77
2020/12/13 11:54:35;;;;;;;18.33;8.57;;;8.50;99.90;;;;;;5027511;28;20195;-83
2020/12/13 11:57:02;;;;;;;16.63;8.80;;;8.50;99.90;;;;;;5028107;28;20206;-84
2020/12/13 11:59:29;;;;;;;18.50;9.80;;;8.50;99.90;;;;;;5025137;28;20239;-75
2020/12/13 12:01:55;;;;;;;17.33;9.23;;;8.50;99.90;;;;;;5007158;28;20214;-79
2020/12/13 12:04:22;;;;;;;22.43;9.60;;;8.50;99.90;;;;;;5006643;28;20215;-77
2020/12/13 12:06:48;;;;;;;18.73;9.63;;;8.50;99.90;;;;;;5005514;28;20206;-86
2020/12/13 12:09:16;;;;;;;16.77;9.87;;;8.50;99.90;;;;;;5004719;28;20203;-76
2020/12/13 12:11:42;;;;;;;19.17;10.40;;;8.50;99.90;;;;;;5003965;28;20867;-83
2020/12/13 12:14:10;;;;;;;19.80;10.73;;;8.50;99.90;;;;;;5004215;28;20214;-78
2020/12/13 12:16:38;;;;;;;18.80;11.97;;;8.50;99.90;;;;;;5005396;28;20196;-84
2020/12/13 12:19:04;;;;;;;20.70;12.07;;;8.50;99.90;;;;;;5004846;28;20215;-79
2020/12/13 12:21:31;;;;;;;19.00;12.10;;;8.50;99.90;;;;;;5004266;28;20214;-75
2020/12/13 12:23:58;;;;;;;21.03;12.40;;;8.40;99.90;;;;;;5006085;28;20208;-79
2020/12/13 12:26:29;;;;;;;19.67;11.67;;;8.40;99.90;;;;;;5005738;28;20248;-83
2020/12/13 12:28:56;;;;;;;23.67;11.37;;;8.40;99.90;;;;;;5005699;28;20410;-75
2020/12/13 12:31:23;;;;;;;17.47;10.20;;;8.40;99.90;;;;;;5004848;28;20203;-75
2020/12/13 12:33:49;;;;;;;20.67;11.67;;;8.40;99.90;;;;;;5006927;28;20494;-75
2020/12/13 12:36:17;;;;;;;19.73;11.50;;;8.40;99.90;;;;;;5010258;28;20204;-87
2020/12/13 12:38:44;;;;;;;31.10;12.50;;;8.40;99.90;;;;;;5008597;28;20285;-74
2020/12/13 12:41:14;;;;;;;20.27;10.23;;;8.40;99.90;;;;;;5007893;28;20920;-76
2020/12/13 12:43:41;;;;;;;15.77;9.87;;;8.50;99.90;;;;;;5009452;28;20211;-74
2020/12/13 12:46:07;;;;;;;15.73;9.97;;;8.50;99.90;;;;;;5007036;28;20195;-78
2020/12/13 12:48:35;;;;;;;16.20;10.13;;;8.50;99.90;;;;;;5003737;28;20582;-86
2020/12/13 12:51:02;;;;;;;16.27;8.60;;;8.50;99.90;;;;;;5009772;28;20202;-84
2020/12/13 12:53:28;;;;;;;13.50;8.60;;;8.50;99.90;;;;;;5007772;28;20289;-81
2020/12/13 12:55:55;;;;;;;12.47;7.60;;;8.50;99.90;;;;;;5008219;28;20643;-77
2020/12/13 12:58:21;;;;;;;12.60;8.20;;;8.40;99.90;;;;;;5008630;28;20200;-75
2020/12/13 13:00:52;;;;;;;12.80;7.47;;;8.50;99.90;;;;;;5006294;28;20273;-76
2020/12/13 13:03:18;;;;;;;13.07;7.10;;;8.40;99.90;;;;;;5008892;28;20211;-77
2020/12/13 13:06:01;;;;;;;10.83;6.53;;;8.40;99.90;;;;;;5007742;28;20218;-75
2020/12/13 13:08:30;;;;;;;9.83;6.90;;;8.40;99.90;;;;;;5007264;28;20337;-75